createdAt,value
2022-12-26T00:01:07.623Z,100445.94
2022-12-26T00:04:51.307Z,100438.28
2022-12-26T00:07:32.556Z,100449.13
2022-12-26T00:10:33.953Z,100440.47
2022-12-26T00:13:39.268Z,100416.91
2022-12-26T00:16:44.077Z,100417.91
2022-12-26T00:19:45.658Z,100413.56
2022-12-26T00:22:47.043Z,100393.34
2022-12-26T00:25:48.544Z,100388.19
2022-12-26T00:28:50.723Z,100404.13
2022-12-26T00:31:52.222Z,100412.81
2022-12-26T00:34:53.677Z,100401.22
2022-12-26T00:37:55.065Z,100405.44
2022-12-26T00:40:56.491Z,100404.41
2022-12-26T00:43:58.317Z,100395.44
2022-12-26T00:46:59.765Z,100396.13
2022-12-26T00:50:12.451Z,100413.63
2022-12-26T00:53:17.079Z,100408.25
2022-12-26T00:56:22.754Z,100411.75
2022-12-26T00:59:25.678Z,100415.22
2022-12-26T01:02:38.096Z,100397.63
2022-12-26T01:05:43.139Z,100413.53
2022-12-26T01:08:44.564Z,100412.13
2022-12-26T01:11:45.963Z,100412.22
2022-12-26T01:14:47.456Z,100422.84
2022-12-26T01:17:48.873Z,100413.28
2022-12-26T01:20:51.353Z,100403.59
2022-12-26T01:23:52.730Z,100405.97
2022-12-26T01:26:54.113Z,100404.03
2022-12-26T01:29:56.122Z,100406.53
2022-12-26T01:32:58.804Z,100421.19
2022-12-26T01:36:00.621Z,100408.34
2022-12-26T01:39:02.008Z,100409.16
2022-12-26T01:42:03.477Z,100423.38
2022-12-26T01:45:04.876Z,100444.56
2022-12-26T01:48:13.844Z,100444.34
2022-12-26T01:51:16.268Z,100443.47
2022-12-26T01:54:40.858Z,100430.13
2022-12-26T01:57:47.821Z,100434.63
2022-12-26T02:00:49.821Z,100428.41
2022-12-26T02:04:10.395Z,100430.03
2022-12-26T02:07:12.081Z,100425.06
2022-12-26T02:10:21.955Z,100422.22
2022-12-26T02:13:23.859Z,100427.06
2022-12-26T02:16:25.734Z,100428.81
2022-12-26T02:19:43.999Z,100434.03
2022-12-26T02:23:02.641Z,100444.63
2022-12-26T02:26:16.147Z,100440.47
2022-12-26T02:29:49.623Z,100436.19
2022-12-26T02:33:10.046Z,100435.41
2022-12-26T02:36:33.591Z,100436.41
2022-12-26T02:39:46.659Z,100437.50
2022-12-26T02:43:17.538Z,100440.47
2022-12-26T02:46:51.223Z,100439.81
2022-12-26T02:50:51.259Z,100447.00
2022-12-26T02:54:40.579Z,100429.53
2022-12-26T02:58:12.032Z,100438.34
2022-12-26T03:01:57.414Z,100445.47
2022-12-26T03:05:18.801Z,100433.25
2022-12-26T03:08:49.207Z,100445.81
2022-12-26T03:12:15.232Z,100452.19
2022-12-26T03:15:20.638Z,100451.44
2022-12-26T03:18:57.933Z,100458.41
2022-12-26T03:21:47.335Z,100440.03
2022-12-26T03:25:08.130Z,100431.84
2022-12-26T03:28:09.831Z,100434.75
2022-12-26T03:31:15.925Z,100434.88
2022-12-26T03:34:17.373Z,100422.72
2022-12-26T03:37:21.678Z,100413.94
2022-12-26T03:40:53.037Z,100416.44
2022-12-26T03:44:33.566Z,100406.84
2022-12-26T03:48:09.004Z,100409.34
2022-12-26T03:51:37.842Z,100406.69
2022-12-26T03:55:11.274Z,100411.09
2022-12-26T03:59:09.715Z,100413.69
2022-12-26T04:02:32.892Z,100407.44
2022-12-26T04:05:58.524Z,100410.84
2022-12-26T04:09:26.319Z,100412.50
2022-12-26T04:12:50.246Z,100405.50
2022-12-26T04:16:25.274Z,100414.34
2022-12-26T04:19:42.456Z,100420.44
2022-12-26T04:23:34.410Z,100424.03
2022-12-26T04:26:59.158Z,100419.69
2022-12-26T04:30:19.636Z,100423.25
2022-12-26T04:33:49.765Z,100428.50
2022-12-26T04:37:24.855Z,100432.06
2022-12-26T04:40:49.059Z,100435.00
2022-12-26T04:44:09.001Z,100429.72
2022-12-26T04:47:11.176Z,100446.34
2022-12-26T04:50:12.598Z,100451.69
2022-12-26T04:53:14.963Z,100452.75
2022-12-26T04:56:17.114Z,100452.16
2022-12-26T04:59:19.294Z,100454.75
2022-12-26T05:02:39.500Z,100457.13
2022-12-26T05:06:12.921Z,100449.09
2022-12-26T05:09:35.091Z,100454.53
2022-12-26T05:12:36.492Z,100460.63
2022-12-26T05:15:57.946Z,100472.03
2022-12-26T05:19:17.740Z,100468.47
2022-12-26T05:22:38.543Z,100467.50
2022-12-26T05:26:00.967Z,100463.84
2022-12-26T05:29:03.756Z,100454.91
2022-12-26T05:32:05.263Z,100461.03
2022-12-26T05:35:07.151Z,100454.78
2022-12-26T05:38:10.658Z,100460.16
2022-12-26T05:41:12.047Z,100455.75
2022-12-26T05:44:13.896Z,100461.97
2022-12-26T05:47:15.302Z,100465.41
2022-12-26T05:50:16.768Z,100470.78
2022-12-26T05:53:18.371Z,100472.50
2022-12-26T05:56:20.357Z,100462.53
2022-12-26T05:59:21.824Z,100465.28
2022-12-26T06:02:23.428Z,100462.81
2022-12-26T06:05:24.963Z,100459.63
2022-12-26T06:08:26.418Z,100459.34
2022-12-26T06:11:27.876Z,100446.81
2022-12-26T06:14:29.261Z,100457.28
2022-12-26T06:17:30.736Z,100456.09
2022-12-26T06:20:32.662Z,100454.00
2022-12-26T06:23:35.607Z,100459.00
2022-12-26T06:26:37.753Z,100463.44
2022-12-26T06:29:39.177Z,100462.00
2022-12-26T06:32:40.571Z,100450.78
2022-12-26T06:35:41.974Z,100452.66
2022-12-26T06:38:44.972Z,100461.31
2022-12-26T06:41:46.374Z,100466.97
2022-12-26T06:44:47.756Z,100474.25
2022-12-26T06:47:49.200Z,100482.44
2022-12-26T06:50:50.986Z,100495.34
2022-12-26T06:53:53.509Z,100503.16
2022-12-26T06:56:54.987Z,100505.63
2022-12-26T06:59:56.575Z,100504.31
2022-12-26T07:02:58.083Z,100506.72
2022-12-26T07:06:08.255Z,100510.72
2022-12-26T07:09:18.795Z,100516.16
2022-12-26T07:12:21.732Z,100513.63
2022-12-26T07:15:23.111Z,100510.03
2022-12-26T07:18:24.491Z,100513.06
2022-12-26T07:21:26.796Z,100522.34
2022-12-26T07:24:28.194Z,100525.16
2022-12-26T07:27:29.683Z,100532.34
2022-12-26T07:30:31.229Z,100529.00
2022-12-26T07:33:32.911Z,100527.31
2022-12-26T07:36:34.639Z,100537.88
2022-12-26T07:39:37.631Z,100523.53
2022-12-26T07:42:39.078Z,100541.22
2022-12-26T07:45:45.520Z,100532.59
2022-12-26T07:48:47.780Z,100527.34
2022-12-26T07:51:49.569Z,100530.88
2022-12-26T07:54:51.007Z,100532.50
2022-12-26T07:57:53.220Z,100537.53
2022-12-26T08:00:54.712Z,100534.94
2022-12-26T08:03:57.800Z,100541.97
2022-12-26T08:06:59.336Z,100549.91
2022-12-26T08:10:00.705Z,100553.38
2022-12-26T08:13:02.745Z,100562.22
2022-12-26T08:16:06.617Z,100556.72
2022-12-26T08:19:08.176Z,100573.63
2022-12-26T08:22:09.591Z,100569.31
2022-12-26T08:25:12.514Z,100578.88
2022-12-26T08:28:14.810Z,100583.44
2022-12-26T08:31:17.685Z,100587.84
2022-12-26T08:34:19.182Z,100590.53
2022-12-26T08:37:20.744Z,100611.50
2022-12-26T08:40:41.985Z,100615.00
2022-12-26T08:44:25.674Z,100619.25
2022-12-26T08:47:13.423Z,100623.53
2022-12-26T08:50:16.064Z,100626.28
2022-12-26T08:53:17.722Z,100625.66
2022-12-26T08:56:21.994Z,100628.31
2022-12-26T08:59:24.793Z,100629.28
2022-12-26T09:02:26.307Z,100626.72
2022-12-26T09:05:27.822Z,100627.59
2022-12-26T09:08:30.375Z,100631.16
2022-12-26T09:11:32.319Z,100638.16
2022-12-26T09:14:34.878Z,100638.22
2022-12-26T09:17:36.369Z,100636.63
2022-12-26T09:20:37.866Z,100626.06
2022-12-26T09:23:40.385Z,100618.03
2022-12-26T09:26:42.958Z,100608.38
2022-12-26T09:29:44.347Z,100622.50
2022-12-26T09:32:45.833Z,100619.91
2022-12-26T09:35:48.011Z,100627.13
2022-12-26T09:38:50.300Z,100631.34
2022-12-26T09:42:02.845Z,100642.66
2022-12-26T09:45:17.340Z,100652.34
2022-12-26T09:48:31.600Z,100664.63
2022-12-26T09:51:36.236Z,100645.25
2022-12-26T09:54:45.622Z,100676.00
2022-12-26T09:57:51.008Z,100684.00
2022-12-26T10:01:00.067Z,100689.28
2022-12-26T10:04:08.305Z,100700.50
2022-12-26T10:07:40.452Z,100689.00
2022-12-26T10:10:51.178Z,100673.25
2022-12-26T10:14:01.086Z,100671.44
2022-12-26T10:17:11.517Z,100670.53
2022-12-26T10:20:22.575Z,100678.34
2022-12-26T10:23:38.218Z,100679.88
2022-12-26T10:26:43.866Z,100685.03
2022-12-26T10:29:59.993Z,100692.00
2022-12-26T10:33:11.544Z,100681.41
2022-12-26T10:36:35.314Z,100668.25
2022-12-26T10:39:55.892Z,100680.66
2022-12-26T10:43:08.107Z,100677.28
2022-12-26T10:46:31.619Z,100683.31
2022-12-26T10:49:33.140Z,100688.59
2022-12-26T10:52:38.502Z,100702.75
2022-12-26T10:55:39.939Z,100686.56
2022-12-26T10:58:41.651Z,100674.22
2022-12-26T11:01:47.389Z,100672.47
2022-12-26T11:05:40.324Z,100675.94
2022-12-26T11:08:33.370Z,100671.28
2022-12-26T11:11:46.885Z,100666.56
2022-12-26T11:14:49.244Z,100668.34
2022-12-26T11:17:52.765Z,100687.53
2022-12-26T11:20:54.244Z,100682.41
2022-12-26T11:24:17.855Z,100678.91
2022-12-26T11:27:23.811Z,100678.00
2022-12-26T11:30:36.942Z,100665.56
2022-12-26T11:33:43.328Z,100658.47
2022-12-26T11:36:48.235Z,100676.75
2022-12-26T11:39:51.998Z,100664.47
2022-12-26T11:42:58.952Z,100670.53
2022-12-26T11:46:00.475Z,100663.16
2022-12-26T11:49:03.737Z,100674.59
2022-12-26T11:52:37.438Z,100673.66
2022-12-26T11:55:39.226Z,100674.81
2022-12-26T11:58:40.787Z,100669.38
2022-12-26T12:01:42.947Z,100664.25
2022-12-26T12:04:48.332Z,100664.63
2022-12-26T12:07:59.782Z,100663.91
2022-12-26T12:11:27.177Z,100658.75
2022-12-26T12:14:54.780Z,100654.44
2022-12-26T12:18:21.104Z,100652.81
2022-12-26T12:21:45.599Z,100648.97
2022-12-26T12:25:21.795Z,100649.09
2022-12-26T12:28:32.305Z,100646.25
2022-12-26T12:31:39.681Z,100637.53
2022-12-26T12:35:02.747Z,100634.84
2022-12-26T12:38:26.017Z,100649.41
2022-12-26T12:41:41.996Z,100642.44
2022-12-26T12:45:20.954Z,100654.97
2022-12-26T12:48:54.514Z,100640.84
2022-12-26T12:52:38.216Z,100664.56
2022-12-26T12:55:52.708Z,100657.47
2022-12-26T12:59:11.239Z,100651.31
2022-12-26T13:02:25.373Z,100653.09
2022-12-26T13:05:44.429Z,100648.53
2022-12-26T13:08:55.581Z,100638.78
2022-12-26T13:12:01.556Z,100638.97
2022-12-26T13:15:08.572Z,100637.06
2022-12-26T13:18:18.769Z,100635.50
2022-12-26T13:21:21.789Z,100643.47
2022-12-26T13:25:01.700Z,100645.47
2022-12-26T13:28:10.041Z,100646.28
2022-12-26T13:31:11.451Z,100651.94
2022-12-26T13:34:20.668Z,100648.28
2022-12-26T13:37:37.215Z,100645.81
2022-12-26T13:40:46.417Z,100641.69
2022-12-26T13:44:23.249Z,100644.25
2022-12-26T13:47:39.895Z,100642.50
2022-12-26T13:50:57.281Z,100636.81
2022-12-26T13:54:08.817Z,100629.53
2022-12-26T13:57:34.560Z,100630.88
2022-12-26T14:00:47.005Z,100615.69
2022-12-26T14:04:19.621Z,100617.31
2022-12-26T14:07:25.975Z,100625.69
2022-12-26T14:10:49.256Z,100616.09
2022-12-26T14:14:13.972Z,100605.06
2022-12-26T14:17:40.236Z,100605.91
2022-12-26T14:20:49.642Z,100601.84
2022-12-26T14:24:09.455Z,100612.41
2022-12-26T14:27:23.712Z,100615.41
2022-12-26T14:30:53.168Z,100619.03
2022-12-26T14:34:12.739Z,100612.22
2022-12-26T14:37:28.746Z,100628.66
2022-12-26T14:40:31.537Z,100620.16
2022-12-26T14:43:38.827Z,100613.84
2022-12-26T14:46:40.620Z,100602.63
2022-12-26T14:49:42.575Z,100610.41
2022-12-26T14:52:44.592Z,100622.69
2022-12-26T14:55:55.069Z,100628.94
2022-12-26T14:59:26.212Z,100630.97
2022-12-26T15:02:34.216Z,100631.75
2022-12-26T15:05:38.821Z,100617.94
2022-12-26T15:08:59.127Z,100622.25
2022-12-26T15:12:15.366Z,100620.56
2022-12-26T15:15:37.562Z,100626.75
2022-12-26T15:19:08.583Z,100612.09
2022-12-26T15:22:46.032Z,100613.72
2022-12-26T15:26:09.209Z,100618.13
2022-12-26T15:29:39.708Z,100616.72
2022-12-26T15:32:53.023Z,100630.94
2022-12-26T15:36:23.691Z,100644.84
2022-12-26T15:39:46.299Z,100644.19
2022-12-26T15:43:06.527Z,100639.75
2022-12-26T15:46:24.415Z,100636.50
2022-12-26T15:50:00.135Z,100642.78
2022-12-26T15:53:18.387Z,100636.91
2022-12-26T15:56:29.061Z,100640.47
2022-12-26T15:59:38.582Z,100638.81
2022-12-26T16:03:19.556Z,100638.63
2022-12-26T16:06:40.413Z,100635.28
2022-12-26T16:09:54.602Z,100642.28
2022-12-26T16:12:58.441Z,100644.16
2022-12-26T16:16:00.513Z,100654.56
2022-12-26T16:19:23.140Z,100646.38
2022-12-26T16:22:46.406Z,100649.28
2022-12-26T16:25:49.745Z,100651.97
2022-12-26T16:28:52.323Z,100645.66
2022-12-26T16:32:02.533Z,100638.44
2022-12-26T16:35:05.296Z,100642.69
2022-12-26T16:38:11.168Z,100634.78
2022-12-26T16:41:30.458Z,100632.97
2022-12-26T16:44:36.927Z,100632.66
2022-12-26T16:47:39.318Z,100645.78
2022-12-26T16:50:50.623Z,100665.19
2022-12-26T16:53:52.036Z,100663.56
2022-12-26T16:57:02.150Z,100674.03
2022-12-26T17:00:04.476Z,100683.81
2022-12-26T17:03:10.937Z,100701.34
2022-12-26T17:06:16.491Z,100688.50
2022-12-26T17:09:20.544Z,100702.78
2022-12-26T17:12:26.246Z,100728.69
2022-12-26T17:15:32.069Z,100732.88
2022-12-26T17:18:39.734Z,100729.06
2022-12-26T17:21:41.198Z,100729.56
2022-12-26T17:24:46.956Z,100743.81
2022-12-26T17:28:08.410Z,100726.22
2022-12-26T17:31:40.839Z,100732.28
2022-12-26T17:34:42.539Z,100743.06
2022-12-26T17:37:45.590Z,100741.28
2022-12-26T17:40:48.599Z,100741.28
2022-12-26T17:43:52.320Z,100739.44
2022-12-26T17:46:53.738Z,100748.00
2022-12-26T17:49:56.155Z,100759.56
2022-12-26T17:53:06.713Z,100754.44
2022-12-26T17:56:14.127Z,100764.13
2022-12-26T17:59:15.570Z,100783.50
2022-12-26T18:02:18.107Z,100788.69
2022-12-26T18:05:20.716Z,100814.97
2022-12-26T18:08:37.229Z,100817.56
2022-12-26T18:11:38.691Z,100829.28
2022-12-26T18:14:40.128Z,100837.84
2022-12-26T18:17:41.843Z,100842.69
2022-12-26T18:20:43.249Z,100833.81
2022-12-26T18:23:44.726Z,100847.88
2022-12-26T18:26:46.248Z,100862.91
2022-12-26T18:29:49.501Z,100875.22
2022-12-26T18:32:52.672Z,100879.63
2022-12-26T18:35:55.060Z,100875.31
2022-12-26T18:38:56.805Z,100847.38
2022-12-26T18:41:58.247Z,100843.56
2022-12-26T18:44:59.634Z,100836.47
2022-12-26T18:48:01.437Z,100865.44
2022-12-26T18:51:04.712Z,100868.31
2022-12-26T18:54:06.206Z,100875.16
2022-12-26T18:57:11.452Z,100870.94
2022-12-26T19:00:14.573Z,100868.28
2022-12-26T19:03:16.019Z,100889.22
2022-12-26T19:06:24.636Z,100890.31
2022-12-26T19:09:26.026Z,100896.53
2022-12-26T19:12:27.784Z,100900.81
2022-12-26T19:15:29.179Z,100914.06
2022-12-26T19:18:30.571Z,100913.06
2022-12-26T19:21:31.957Z,100904.31
2022-12-26T19:24:34.033Z,100899.16
2022-12-26T19:27:35.559Z,100917.59
2022-12-26T19:30:39.186Z,100931.84
2022-12-26T19:33:40.947Z,100941.44
2022-12-26T19:36:42.346Z,100939.66
2022-12-26T19:39:43.897Z,100953.16
2022-12-26T19:42:47.518Z,100953.88
2022-12-26T19:45:48.970Z,100965.44
2022-12-26T19:48:50.939Z,100963.88
2022-12-26T19:51:52.340Z,100958.78
2022-12-26T19:54:53.884Z,100963.25
2022-12-26T19:57:55.333Z,100975.53
2022-12-26T20:01:12.145Z,100990.81
2022-12-26T20:04:13.653Z,100986.31
2022-12-26T20:07:15.056Z,101008.25
2022-12-26T20:10:16.471Z,101013.72
2022-12-26T20:13:17.941Z,101019.06
2022-12-26T20:17:03.449Z,101017.44
2022-12-26T20:19:47.383Z,101022.78
2022-12-26T20:22:53.035Z,101027.06
2022-12-26T20:25:54.882Z,101041.22
2022-12-26T20:29:01.115Z,101041.09
2022-12-26T20:32:02.542Z,101052.50
2022-12-26T20:35:04.246Z,101060.41
2022-12-26T20:38:05.653Z,101051.41
2022-12-26T20:41:08.484Z,101070.03
2022-12-26T20:44:15.517Z,101075.28
2022-12-26T20:47:17.394Z,101078.75
2022-12-26T20:50:19.258Z,101099.88
2022-12-26T20:53:20.788Z,101113.88
2022-12-26T20:56:22.459Z,101124.44
2022-12-26T20:59:23.921Z,101137.69
2022-12-26T21:02:25.443Z,101161.59
2022-12-26T21:05:26.970Z,101142.59
2022-12-26T21:08:28.382Z,101153.19
2022-12-26T21:11:32.580Z,101162.88
2022-12-26T21:14:34.007Z,101175.16
2022-12-26T21:17:36.814Z,101175.94
2022-12-26T21:20:38.340Z,101188.22
2022-12-26T21:23:40.490Z,101190.13
2022-12-26T21:26:42.890Z,101191.00
2022-12-26T21:29:44.378Z,101203.44
2022-12-26T21:32:46.461Z,101200.94
2022-12-26T21:35:52.908Z,101207.13
2022-12-26T21:38:55.076Z,101204.47
2022-12-26T21:41:56.469Z,101208.94
2022-12-26T21:44:58.893Z,101209.81
2022-12-26T21:48:00.279Z,101216.78
2022-12-26T21:51:01.727Z,101232.66
2022-12-26T21:54:21.756Z,101233.47
2022-12-26T21:57:23.517Z,101247.56
2022-12-26T22:00:25.537Z,101248.41
2022-12-26T22:03:45.640Z,101253.75
2022-12-26T22:06:49.784Z,101264.31
2022-12-26T22:09:52.050Z,101269.56
2022-12-26T22:12:59.581Z,101272.22
2022-12-26T22:16:09.670Z,101283.59
2022-12-26T22:19:11.812Z,101291.50
2022-12-26T22:22:13.251Z,101308.25
2022-12-26T22:25:15.593Z,101312.72
2022-12-26T22:28:23.031Z,101317.13
2022-12-26T22:31:29.949Z,101325.00
2022-12-26T22:34:31.367Z,101327.59
2022-12-26T22:37:32.748Z,101338.03
2022-12-26T22:40:34.188Z,101345.03
2022-12-26T22:43:35.767Z,101352.00
2022-12-26T22:46:37.409Z,101357.34
2022-12-26T22:49:38.820Z,101364.34
2022-12-26T22:52:40.235Z,101374.81
2022-12-26T22:55:50.504Z,101374.75
2022-12-26T22:58:56.639Z,101385.34
2022-12-26T23:01:59.126Z,101388.88
2022-12-26T23:05:01.033Z,101395.91
2022-12-26T23:08:03.422Z,101401.16
2022-12-26T23:11:05.010Z,101413.34
2022-12-26T23:14:08.130Z,101407.25
2022-12-26T23:17:34.639Z,101421.31
2022-12-26T23:20:56.439Z,101430.97
2022-12-26T23:23:57.927Z,101436.22
2022-12-26T23:27:22.010Z,101435.38
2022-12-26T23:30:25.437Z,101439.75
2022-12-26T23:33:26.868Z,101446.81
2022-12-26T23:36:28.341Z,101454.69
2022-12-26T23:39:29.874Z,101455.53
2022-12-26T23:42:31.377Z,101461.69
2022-12-26T23:45:32.823Z,101467.84
2022-12-26T23:48:34.235Z,101470.47
2022-12-26T23:51:35.600Z,101478.38
2022-12-26T23:54:37.027Z,101480.13
2022-12-26T23:57:38.497Z,101491.50
